Time;durP1;ratioP1;P1;durP2;ratioP2;P2;SDS_P1;SDS_P2;PMS_P1;PMS_P2;Temp;Humidity;BMP_temperature;BMP_pressure;BME280_temperature;BME280_humidity;BME280_pressure;Samples;Min_cycle;Max_cycle;Signal;HPM_P1;HPM_P2
2023/03/20 00:00:03;;;;;;;20.10;6.25;;;;;;;;;;5130369;27;20100;-80
2023/03/20 00:02:29;;;;;;;18.88;7.45;;;;;;;;;;5169810;27;20031;-81
2023/03/20 00:04:55;;;;;;;17.92;5.95;;;;;;;;;;5136209;27;20035;-82
2023/03/20 00:07:21;;;;;;;19.33;6.47;;;;;;;;;;5152105;27;20514;-81
2023/03/20 00:09:48;;;;;;;20.50;6.53;;;;;;;;;;5145400;27;20043;-82
2023/03/20 00:12:16;;;;;;;17.67;6.10;;;;;;;;;;5132714;27;20051;-81
2023/03/20 00:14:42;;;;;;;16.95;5.63;;;;;;;;;;5136271;27;20165;-80
2023/03/20 00:17:10;;;;;;;17.58;6.03;;;;;;;;;;5123523;27;20095;-81
2023/03/20 00:19:36;;;;;;;17.40;6.95;;;;;;;;;;5146829;27;20118;-81
2023/03/20 00:22:02;;;;;;;15.05;5.65;;;;;;;;;;5143120;27;20372;-80
2023/03/20 00:24:28;;;;;;;16.70;5.80;;;;;;;;;;5149236;27;20575;-80
2023/03/20 00:26:54;;;;;;;19.38;6.43;;;;;;;;;;5137986;27;20043;-80
2023/03/20 00:29:20;;;;;;;14.63;5.45;;;;;;;;;;5142234;27;20039;-80
2023/03/20 00:31:47;;;;;;;15.52;5.93;;;;;;;;;;5132138;27;20436;-80
2023/03/20 00:34:14;;;;;;;17.95;5.60;;;;;;;;;;5141443;27;20505;-80
2023/03/20 00:36:40;;;;;;;14.90;5.93;;;;;;;;;;5138259;27;20047;-80
2023/03/20 00:39:06;;;;;;;17.48;6.40;;;;;;;;;;5145916;27;20480;-80
2023/03/20 00:41:37;;;;;;;17.60;5.78;;;;;;;;;;5145678;27;20099;-81
2023/03/20 00:44:08;;;;;;;20.38;6.03;;;;;;;;;;5152736;27;20483;-80
2023/03/20 00:46:36;;;;;;;17.70;6.45;;;;;;;;;;5140217;27;20047;-80
2023/03/20 00:49:02;;;;;;;19.50;6.53;;;;;;;;;;5150904;27;20063;-81
2023/03/20 00:51:29;;;;;;;15.63;6.80;;;;;;;;;;5152700;27;20041;-80
2023/03/20 00:53:55;;;;;;;20.13;6.50;;;;;;;;;;5136285;27;20039;-81
2023/03/20 00:56:30;;;;;;;19.10;7.15;;;;;;;;;;5132477;28;20039;-80
2023/03/20 00:58:56;;;;;;;20.52;7.32;;;;;;;;;;5148530;27;20050;-80
2023/03/20 01:01:22;;;;;;;21.08;8.63;;;;;;;;;;5127116;27;20050;-80
2023/03/20 01:03:48;;;;;;;20.85;8.57;;;;;;;;;;5149955;27;20047;-80
2023/03/20 01:06:15;;;;;;;29.40;9.77;;;;;;;;;;5150474;27;20492;-81
2023/03/20 01:08:41;;;;;;;25.98;9.23;;;;;;;;;;5148879;27;20117;-80
2023/03/20 01:11:09;;;;;;;25.33;9.27;;;;;;;;;;5152076;27;20118;-80
2023/03/20 01:13:37;;;;;;;22.65;10.50;;;;;;;;;;5129860;27;20047;-81
2023/03/20 01:16:03;;;;;;;26.48;10.18;;;;;;;;;;5139043;27;20042;-80
2023/03/20 01:18:30;;;;;;;25.30;9.48;;;;;;;;;;5156607;27;20114;-80
2023/03/20 01:20:56;;;;;;;22.83;9.70;;;;;;;;;;5141938;27;20483;-80
2023/03/20 01:23:22;;;;;;;24.38;10.50;;;;;;;;;;5156687;27;20046;-80
2023/03/20 01:25:49;;;;;;;24.55;9.50;;;;;;;;;;5156921;27;20039;-80
2023/03/20 01:28:17;;;;;;;26.30;10.15;;;;;;;;;;5155804;27;20046;-81
2023/03/20 01:30:43;;;;;;;25.27;9.70;;;;;;;;;;5143524;27;20039;-81
2023/03/20 01:33:16;;;;;;;31.08;10.18;;;;;;;;;;5121875;27;20159;-81
2023/03/20 01:35:43;;;;;;;22.13;10.00;;;;;;;;;;5122157;27;20039;-80
2023/03/20 01:38:18;;;;;;;30.15;10.48;;;;;;;;;;5136548;27;20094;-79
2023/03/20 01:40:56;;;;;;;23.42;9.30;;;;;;;;;;5142174;27;20046;-81
2023/03/20 01:43:23;;;;;;;24.25;9.52;;;;;;;;;;5124648;27;20043;-80
2023/03/20 01:46:20;;;;;;;28.83;9.82;;;;;;;;;;5135530;27;20039;-80
2023/03/20 01:48:49;;;;;;;25.80;9.45;;;;;;;;;;5113016;27;20058;-79
2023/03/20 01:51:22;;;;;;;23.75;9.57;;;;;;;;;;5127185;27;20406;-79
2023/03/20 01:54:10;;;;;;;23.73;9.10;;;;;;;;;;5155803;27;20049;-81
2023/03/20 01:56:43;;;;;;;19.83;8.63;;;;;;;;;;5144928;27;20054;-81
2023/03/20 01:59:11;;;;;;;24.00;9.45;;;;;;;;;;5153265;27;20038;-80
2023/03/20 02:01:38;;;;;;;22.05;9.30;;;;;;;;;;5153449;27;20049;-80
2023/03/20 02:04:05;;;;;;;28.13;9.80;;;;;;;;;;5138204;27;20579;-80
2023/03/20 02:06:32;;;;;;;18.42;9.82;;;;;;;;;;5138632;27;20042;-79
2023/03/20 02:08:58;;;;;;;21.60;9.73;;;;;;;;;;5155517;27;20039;-81
2023/03/20 02:11:25;;;;;;;22.25;9.70;;;;;;;;;;5148900;27;20039;-80
2023/03/20 02:13:56;;;;;;;22.23;9.25;;;;;;;;;;5134693;27;20062;-80
2023/03/20 02:16:22;;;;;;;26.08;10.43;;;;;;;;;;5154839;27;20065;-81
2023/03/20 02:18:51;;;;;;;22.10;9.60;;;;;;;;;;5155283;27;20049;-81
2023/03/20 02:21:45;;;;;;;22.80;10.07;;;;;;;;;;5154814;27;20043;-81
2023/03/20 02:24:11;;;;;;;25.38;10.15;;;;;;;;;;5144829;27;20046;-80
2023/03/20 02:26:52;;;;;;;24.85;9.40;;;;;;;;;;5136527;27;20049;-80
2023/03/20 02:29:37;;;;;;;19.52;8.43;;;;;;;;;;5137991;27;20046;-80
2023/03/20 02:32:22;;;;;;;18.48;8.35;;;;;;;;;;5135437;27;20110;-80
2023/03/20 02:35:02;;;;;;;16.88;8.60;;;;;;;;;;5117242;27;20046;-80
2023/03/20 02:37:43;;;;;;;21.58;7.35;;;;;;;;;;5130435;27;20387;-80
2023/03/20 02:40:25;;;;;;;15.45;7.40;;;;;;;;;;5140067;27;20074;-80
2023/03/20 02:43:09;;;;;;;22.85;7.97;;;;;;;;;;5155192;27;20558;-81
2023/03/20 02:45:42;;;;;;;16.20;7.03;;;;;;;;;;5156091;27;20038;-80
2023/03/20 02:48:11;;;;;;;12.35;6.10;;;;;;;;;;5154480;27;20043;-80
2023/03/20 02:50:48;;;;;;;15.57;6.97;;;;;;;;;;5154595;27;20034;-81
2023/03/20 02:53:37;;;;;;;15.35;6.15;;;;;;;;;;5154906;27;20039;-80
2023/03/20 02:56:03;;;;;;;18.35;7.15;;;;;;;;;;5137482;27;20035;-81
2023/03/20 02:58:49;;;;;;;15.07;6.40;;;;;;;;;;5154894;27;20529;-81
2023/03/20 03:01:27;;;;;;;14.30;6.78;;;;;;;;;;5118700;27;20090;-80
2023/03/20 03:03:55;;;;;;;14.43;6.28;;;;;;;;;;5146234;27;20360;-81
2023/03/20 03:06:24;;;;;;;14.18;6.43;;;;;;;;;;5114422;27;20078;-80
2023/03/20 03:08:53;;;;;;;16.27;6.40;;;;;;;;;;5133390;27;20039;-81
2023/03/20 03:11:19;;;;;;;13.93;5.97;;;;;;;;;;5156701;27;20523;-82
2023/03/20 03:13:48;;;;;;;13.63;6.13;;;;;;;;;;5157931;27;20045;-82
2023/03/20 03:16:23;;;;;;;15.02;6.30;;;;;;;;;;5157389;27;20074;-82
2023/03/20 03:18:53;;;;;;;14.67;5.50;;;;;;;;;;5123824;27;20041;-82
2023/03/20 03:21:20;;;;;;;13.55;5.88;;;;;;;;;;5156005;27;20044;-80
2023/03/20 03:23:47;;;;;;;16.73;5.90;;;;;;;;;;5146322;27;20069;-80
2023/03/20 03:26:28;;;;;;;14.15;6.35;;;;;;;;;;5150428;27;20035;-79
2023/03/20 03:28:56;;;;;;;13.13;5.40;;;;;;;;;;5148506;27;20034;-80
2023/03/20 03:31:24;;;;;;;13.13;6.07;;;;;;;;;;5157260;27;20101;-80
2023/03/20 03:33:52;;;;;;;14.63;6.20;;;;;;;;;;5157607;27;20043;-80
2023/03/20 03:36:21;;;;;;;17.27;6.18;;;;;;;;;;5165046;27;20047;-80
2023/03/20 03:38:58;;;;;;;13.63;5.82;;;;;;;;;;5137029;27;20042;-80
2023/03/20 03:41:36;;;;;;;13.02;6.10;;;;;;;;;;5175951;27;20030;-80
2023/03/20 03:44:11;;;;;;;12.35;5.45;;;;;;;;;;5157121;27;20034;-80
2023/03/20 03:46:37;;;;;;;15.10;7.05;;;;;;;;;;5139712;27;20121;-80
2023/03/20 03:49:04;;;;;;;12.75;5.88;;;;;;;;;;5154070;27;20041;-80
2023/03/20 03:51:33;;;;;;;20.73;6.63;;;;;;;;;;5145542;27;20074;-80
2023/03/20 03:54:06;;;;;;;13.10;6.03;;;;;;;;;;5160970;27;20065;-80
2023/03/20 03:56:34;;;;;;;10.98;5.95;;;;;;;;;;5175458;27;20402;-80
2023/03/20 03:59:03;;;;;;;13.45;5.70;;;;;;;;;;5175508;27;20038;-80
2023/03/20 04:01:34;;;;;;;14.38;6.15;;;;;;;;;;5144874;27;20030;-81
2023/03/20 04:04:00;;;;;;;10.80;5.88;;;;;;;;;;5133427;27;20037;-82
2023/03/20 04:06:27;;;;;;;15.65;6.50;;;;;;;;;;5156307;27;20109;-82
2023/03/20 04:08:53;;;;;;;14.70;6.18;;;;;;;;;;5139866;27;20478;-81
2023/03/20 04:11:21;;;;;;;16.55;6.72;;;;;;;;;;5137018;27;20081;-82
2023/03/20 04:13:48;;;;;;;14.80;6.43;;;;;;;;;;5136139;27;20455;-82
2023/03/20 04:16:14;;;;;;;13.50;6.18;;;;;;;;;;5152539;27;20485;-81
2023/03/20 04:18:41;;;;;;;18.55;6.45;;;;;;;;;;5148742;27;20050;-81
2023/03/20 04:21:07;;;;;;;17.05;6.95;;;;;;;;;;5133488;27;20509;-82
2023/03/20 04:23:33;;;;;;;16.17;6.50;;;;;;;;;;5104059;27;20035;-80
2023/03/20 04:26:00;;;;;;;14.55;6.50;;;;;;;;;;5118684;27;20041;-80
2023/03/20 04:28:26;;;;;;;22.70;7.38;;;;;;;;;;5154692;27;20098;-80
2023/03/20 04:30:53;;;;;;;16.00;7.40;;;;;;;;;;5139311;27;20037;-80
2023/03/20 04:33:19;;;;;;;18.35;7.13;;;;;;;;;;5138899;27;20042;-80
2023/03/20 04:35:46;;;;;;;19.10;7.50;;;;;;;;;;5144937;27;20090;-80
2023/03/20 04:38:12;;;;;;;17.60;7.78;;;;;;;;;;5140503;27;20529;-80
2023/03/20 04:40:38;;;;;;;20.83;8.98;;;;;;;;;;5142517;27;20837;-80
2023/03/20 04:43:04;;;;;;;21.88;8.23;;;;;;;;;;5139040;27;20062;-79
2023/03/20 04:45:30;;;;;;;19.67;9.02;;;;;;;;;;5113353;28;20114;-80
2023/03/20 04:47:56;;;;;;;16.08;8.50;;;;;;;;;;5137621;27;20554;-80
2023/03/20 04:50:22;;;;;;;23.25;9.23;;;;;;;;;;5160237;27;20390;-81
2023/03/20 04:52:48;;;;;;;17.73;9.25;;;;;;;;;;5156124;27;20042;-81
2023/03/20 04:55:15;;;;;;;21.95;9.55;;;;;;;;;;5138852;27;20068;-81
2023/03/20 04:57:41;;;;;;;19.48;9.18;;;;;;;;;;5155996;27;20464;-82
2023/03/20 05:00:07;;;;;;;23.38;10.13;;;;;;;;;;5156641;27;20524;-80
2023/03/20 05:02:34;;;;;;;23.05;10.25;;;;;;;;;;5153716;27;20078;-81
2023/03/20 05:05:00;;;;;;;21.75;9.80;;;;;;;;;;5117638;27;20041;-82
2023/03/20 05:07:26;;;;;;;19.98;10.20;;;;;;;;;;5134301;27;20049;-79
2023/03/20 05:09:52;;;;;;;20.92;9.93;;;;;;;;;;5141054;27;20505;-79
2023/03/20 05:12:18;;;;;;;22.25;9.38;;;;;;;;;;5126782;27;20059;-79
2023/03/20 05:14:44;;;;;;;20.10;9.70;;;;;;;;;;5135035;27;20045;-79
2023/03/20 05:17:10;;;;;;;19.20;9.68;;;;;;;;;;5145327;27;20137;-82
2023/03/20 05:19:37;;;;;;;21.85;9.60;;;;;;;;;;5160030;27;20038;-82
2023/03/20 05:22:04;;;;;;;20.42;10.07;;;;;;;;;;5148158;27;20487;-80
2023/03/20 05:24:30;;;;;;;16.80;9.07;;;;;;;;;;5149313;27;20118;-80
2023/03/20 05:26:56;;;;;;;19.52;9.00;;;;;;;;;;5138761;27;20073;-82
2023/03/20 05:29:23;;;;;;;17.95;9.25;;;;;;;;;;5138913;27;20045;-82
2023/03/20 05:31:49;;;;;;;18.65;8.95;;;;;;;;;;5156038;27;20041;-82
2023/03/20 05:34:15;;;;;;;19.33;8.70;;;;;;;;;;5155749;27;20046;-81
2023/03/20 05:36:41;;;;;;;18.27;8.90;;;;;;;;;;5138588;27;20085;-80
2023/03/20 05:39:07;;;;;;;19.45;9.40;;;;;;;;;;5135165;27;20039;-81
2023/03/20 05:41:33;;;;;;;18.63;9.43;;;;;;;;;;5149801;27;20171;-82
2023/03/20 05:44:00;;;;;;;18.27;9.48;;;;;;;;;;5149189;27;20047;-80
2023/03/20 05:46:26;;;;;;;19.52;8.60;;;;;;;;;;5147757;27;20133;-80
2023/03/20 05:48:52;;;;;;;22.75;8.85;;;;;;;;;;5157253;27;20117;-81
2023/03/20 05:51:18;;;;;;;16.65;9.07;;;;;;;;;;5125402;27;20035;-82
2023/03/20 05:53:44;;;;;;;21.67;8.90;;;;;;;;;;5141518;27;20037;-81
2023/03/20 05:56:11;;;;;;;18.75;9.20;;;;;;;;;;5159872;27;20046;-81
2023/03/20 05:58:37;;;;;;;68.30;37.90;;;;;;;;;;5177839;27;20041;-80
2023/03/20 06:01:03;;;;;;;24.30;14.60;;;;;;;;;;5158436;27;20074;-82
2023/03/20 06:03:29;;;;;;;18.00;9.40;;;;;;;;;;5129193;27;20038;-81
2023/03/20 06:05:56;;;;;;;18.67;9.02;;;;;;;;;;5140833;27;20081;-80
2023/03/20 06:08:22;;;;;;;21.08;9.60;;;;;;;;;;5147803;27;20487;-80
2023/03/20 06:10:50;;;;;;;22.13;9.52;;;;;;;;;;5138400;27;20046;-81
2023/03/20 06:13:16;;;;;;;19.35;10.02;;;;;;;;;;5171854;27;20050;-80
2023/03/20 06:15:42;;;;;;;20.55;10.13;;;;;;;;;;5138211;27;20054;-81
2023/03/20 06:18:08;;;;;;;21.45;9.73;;;;;;;;;;5156592;27;20053;-80
2023/03/20 06:20:34;;;;;;;19.08;9.35;;;;;;;;;;5106849;27;20090;-81
2023/03/20 06:23:00;;;;;;;24.15;9.65;;;;;;;;;;5149999;27;20050;-80
2023/03/20 06:25:27;;;;;;;20.17;10.00;;;;;;;;;;5139317;27;20042;-80
2023/03/20 06:27:53;;;;;;;23.92;9.82;;;;;;;;;;5158545;27;20034;-81
2023/03/20 06:30:19;;;;;;;24.20;10.40;;;;;;;;;;5144482;27;20043;-80
2023/03/20 06:32:46;;;;;;;22.42;10.63;;;;;;;;;;5144285;27;20037;-81
2023/03/20 06:35:13;;;;;;;27.73;10.40;;;;;;;;;;5146175;27;20039;-81
2023/03/20 06:37:39;;;;;;;23.65;10.77;;;;;;;;;;5139024;27;20117;-81
2023/03/20 06:40:08;;;;;;;22.00;10.07;;;;;;;;;;5166669;27;20042;-80
2023/03/20 06:42:34;;;;;;;20.83;9.95;;;;;;;;;;5132063;27;20122;-80
2023/03/20 06:45:00;;;;;;;22.45;10.57;;;;;;;;;;5124447;27;20090;-81
2023/03/20 06:47:26;;;;;;;25.27;10.73;;;;;;;;;;5143592;27;20035;-80
2023/03/20 06:49:52;;;;;;;20.38;10.63;;;;;;;;;;5176916;27;20030;-81
2023/03/20 06:52:21;;;;;;;24.48;10.77;;;;;;;;;;5158256;27;20038;-81
2023/03/20 06:54:47;;;;;;;25.10;10.93;;;;;;;;;;5158111;27;20397;-81
2023/03/20 06:57:16;;;;;;;25.08;11.48;;;;;;;;;;5158248;27;20042;-81
2023/03/20 06:59:42;;;;;;;25.52;11.10;;;;;;;;;;5157049;27;20090;-80
2023/03/20 07:02:09;;;;;;;24.13;10.65;;;;;;;;;;5151325;27;20498;-80
2023/03/20 07:04:36;;;;;;;24.40;11.32;;;;;;;;;;5141590;27;20042;-80
2023/03/20 07:07:02;;;;;;;27.30;12.10;;;;;;;;;;5170645;27;20505;-81
2023/03/20 07:09:28;;;;;;;24.27;11.85;;;;;;;;;;5155809;27;20045;-82
2023/03/20 07:11:54;;;;;;;26.55;11.57;;;;;;;;;;5128020;27;20498;-81
2023/03/20 07:14:21;;;;;;;26.05;12.10;;;;;;;;;;5158112;27;20553;-81
2023/03/20 07:16:47;;;;;;;24.70;11.68;;;;;;;;;;5157768;27;20046;-80
2023/03/20 07:19:13;;;;;;;26.00;12.25;;;;;;;;;;5109337;27;20117;-81
2023/03/20 07:21:40;;;;;;;24.92;11.50;;;;;;;;;;5157766;27;20045;-81
2023/03/20 07:24:07;;;;;;;26.83;12.43;;;;;;;;;;5142912;27;20054;-81
2023/03/20 07:26:33;;;;;;;23.48;12.18;;;;;;;;;;5157776;27;20459;-81
2023/03/20 07:28:59;;;;;;;22.92;11.73;;;;;;;;;;5139792;27;20125;-81
2023/03/20 07:31:27;;;;;;;25.20;11.43;;;;;;;;;;5157890;27;20126;-81
2023/03/20 07:33:53;;;;;;;25.92;11.55;;;;;;;;;;5143699;27;20053;-80
2023/03/20 07:36:20;;;;;;;26.38;11.70;;;;;;;;;;5156964;27;20554;-81
2023/03/20 07:38:47;;;;;;;26.20;12.23;;;;;;;;;;5157077;27;20087;-80
2023/03/20 07:41:13;;;;;;;23.75;12.00;;;;;;;;;;5140067;27;20041;-81
2023/03/20 07:43:39;;;;;;;22.23;11.32;;;;;;;;;;5157304;27;20086;-80
2023/03/20 07:46:06;;;;;;;24.15;11.82;;;;;;;;;;5156987;27;20069;-79
2023/03/20 07:48:32;;;;;;;23.00;12.23;;;;;;;;;;5157021;27;20042;-81
2023/03/20 07:50:58;;;;;;;30.13;13.73;;;;;;;;;;5156836;27;20038;-81
2023/03/20 07:53:24;;;;;;;27.15;14.13;;;;;;;;;;5157138;27;20045;-81
2023/03/20 07:55:51;;;;;;;23.30;11.48;;;;;;;;;;5175383;27;20090;-81
2023/03/20 07:58:17;;;;;;;21.90;11.43;;;;;;;;;;5139725;27;20034;-81
2023/03/20 08:00:43;;;;;;;28.08;11.75;;;;;;;;;;5146422;27;20042;-81
2023/03/20 08:03:09;;;;;;;26.10;11.98;;;;;;;;;;5156660;27;20484;-80
2023/03/20 08:05:35;;;;;;;22.02;11.73;;;;;;;;;;5175656;27;20038;-80
2023/03/20 08:08:02;;;;;;;27.23;11.70;;;;;;;;;;5156445;27;20050;-80
2023/03/20 08:10:28;;;;;;;20.85;10.82;;;;;;;;;;5146143;27;20035;-81
2023/03/20 08:12:54;;;;;;;27.30;12.50;;;;;;;;;;5151873;27;20133;-81
2023/03/20 08:15:21;;;;;;;23.73;11.45;;;;;;;;;;5156548;27;20080;-81
2023/03/20 08:17:47;;;;;;;22.83;11.30;;;;;;;;;;5156259;27;20046;-81
2023/03/20 08:20:15;;;;;;;23.73;12.07;;;;;;;;;;5156670;27;20038;-81
2023/03/20 08:22:41;;;;;;;20.67;10.52;;;;;;;;;;5156633;27;20114;-80
2023/03/20 08:25:08;;;;;;;23.15;11.80;;;;;;;;;;5156563;27;20050;-80
2023/03/20 08:27:34;;;;;;;23.70;11.18;;;;;;;;;;5156421;27;20482;-81
2023/03/20 08:30:00;;;;;;;23.95;11.10;;;;;;;;;;5138925;27;20030;-80
2023/03/20 08:32:27;;;;;;;21.85;10.70;;;;;;;;;;5139404;27;20470;-80
2023/03/20 08:34:55;;;;;;;22.30;10.95;;;;;;;;;;5138794;27;20038;-81
2023/03/20 08:37:22;;;;;;;23.30;11.35;;;;;;;;;;5139259;27;20398;-81
2023/03/20 08:39:48;;;;;;;20.77;10.88;;;;;;;;;;5138803;27;20174;-81
2023/03/20 08:42:14;;;;;;;22.42;11.15;;;;;;;;;;5154270;27;20050;-81
2023/03/20 08:44:41;;;;;;;21.65;10.95;;;;;;;;;;5143642;27;20049;-80
2023/03/20 08:47:09;;;;;;;19.83;10.43;;;;;;;;;;5138641;27;20057;-80
2023/03/20 08:49:35;;;;;;;22.17;10.50;;;;;;;;;;5122308;27;20048;-80
2023/03/20 08:52:02;;;;;;;21.95;11.07;;;;;;;;;;5156080;27;20038;-80
2023/03/20 08:54:28;;;;;;;17.90;9.95;;;;;;;;;;5155961;27;20037;-81
2023/03/20 08:56:54;;;;;;;21.13;11.10;;;;;;;;;;5138902;27;20042;-80
2023/03/20 08:59:20;;;;;;;23.90;11.88;;;;;;;;;;5155732;27;20085;-80
2023/03/20 09:01:46;;;;;;;25.27;12.57;;;;;;;;;;5124962;27;20057;-80
2023/03/20 09:04:13;;;;;;;24.17;11.90;;;;;;;;;;5132623;27;20121;-80
2023/03/20 09:06:40;;;;;;;25.40;12.52;;;;;;;;;;5142351;27;20126;-80
2023/03/20 09:09:07;;;;;;;18.67;10.68;;;;;;;;;;5155796;27;20046;-80
2023/03/20 09:11:33;;;;;;;19.50;10.70;;;;;;;;;;5150509;27;20034;-80
2023/03/20 09:14:00;;;;;;;21.27;10.45;;;;;;;;;;5117865;27;20070;-80
2023/03/20 09:16:26;;;;;;;16.95;9.68;;;;;;;;;;5149707;27;20042;-80
2023/03/20 09:18:53;;;;;;;16.90;10.05;;;;;;;;;;5145093;27;20121;-80
2023/03/20 09:21:19;;;;;;;22.02;11.40;;;;;;;;;;5155966;27;20079;-80
2023/03/20 09:23:46;;;;;;;19.10;9.50;;;;;;;;;;5157623;27;20038;-80
2023/03/20 09:26:12;;;;;;;15.75;9.93;;;;;;;;;;5159972;27;20038;-80
2023/03/20 09:28:38;;;;;;;23.45;11.00;;;;;;;;;;5131118;27;20106;-80
2023/03/20 09:31:04;;;;;;;22.17;10.93;;;;;;;;;;5159584;27;20038;-80
2023/03/20 09:33:30;;;;;;;20.23;10.02;;;;;;;;;;5159699;27;20034;-80
2023/03/20 09:35:56;;;;;;;20.60;9.75;;;;;;;;;;5159562;27;20040;-80
2023/03/20 09:38:23;;;;;;;19.55;10.63;;;;;;;;;;5140617;27;20041;-79
2023/03/20 09:40:56;;;;;;;18.63;10.05;;;;;;;;;;5139183;27;20077;-79
2023/03/20 09:43:41;;;;;;;22.42;9.85;;;;;;;;;;5123187;27;20410;-79
2023/03/20 09:46:18;;;;;;;17.90;9.48;;;;;;;;;;5149510;27;20035;-80
2023/03/20 09:49:02;;;;;;;18.70;9.85;;;;;;;;;;5125213;27;20083;-80
2023/03/20 09:51:30;;;;;;;18.65;8.85;;;;;;;;;;5159840;27;20454;-80
2023/03/20 09:53:58;;;;;;;19.67;9.63;;;;;;;;;;5155418;27;20403;-80
2023/03/20 09:56:26;;;;;;;18.15;8.23;;;;;;;;;;5138950;27;20493;-80
2023/03/20 09:58:56;;;;;;;16.80;7.30;;;;;;;;;;5174832;27;20117;-80
2023/03/20 10:01:27;;;;;;;12.40;6.53;;;;;;;;;;5158556;27;20090;-79
2023/03/20 10:03:55;;;;;;;14.02;6.22;;;;;;;;;;5142498;27;20045;-80
2023/03/20 10:06:21;;;;;;;16.80;6.00;;;;;;;;;;5138133;27;20039;-80
2023/03/20 10:08:47;;;;;;;14.13;5.68;;;;;;;;;;5118964;27;20042;-79
2023/03/20 10:11:15;;;;;;;12.85;5.80;;;;;;;;;;5156103;27;20038;-80
2023/03/20 10:13:56;;;;;;;13.95;5.68;;;;;;;;;;5147497;27;20125;-80
2023/03/20 10:16:37;;;;;;;13.30;6.28;;;;;;;;;;5144408;27;20494;-80
2023/03/20 10:19:03;;;;;;;13.90;5.55;;;;;;;;;;5141486;27;20038;-80
2023/03/20 10:21:38;;;;;;;10.80;5.18;;;;;;;;;;5141608;27;20038;-80
2023/03/20 10:24:06;;;;;;;12.25;5.00;;;;;;;;;;5158493;27;20049;-80
2023/03/20 10:26:34;;;;;;;11.82;4.85;;;;;;;;;;5141364;27;21192;-80
2023/03/20 10:29:01;;;;;;;12.30;5.22;;;;;;;;;;5168121;27;20069;-80
2023/03/20 10:31:31;;;;;;;11.32;4.55;;;;;;;;;;5153598;27;20038;-80
2023/03/20 10:34:00;;;;;;;11.48;4.28;;;;;;;;;;5158541;27;20030;-80
2023/03/20 10:36:37;;;;;;;9.52;4.15;;;;;;;;;;5176918;27;20034;-79
2023/03/20 10:39:10;;;;;;;12.40;4.45;;;;;;;;;;5140979;27;20162;-80
2023/03/20 10:41:38;;;;;;;11.15;4.50;;;;;;;;;;5141120;27;20036;-79
2023/03/20 10:44:07;;;;;;;9.63;4.60;;;;;;;;;;5151182;27;20574;-79
2023/03/20 10:46:35;;;;;;;11.27;4.70;;;;;;;;;;5117193;27;20031;-80
2023/03/20 10:49:07;;;;;;;12.50;4.85;;;;;;;;;;5143659;27;20062;-79
2023/03/20 10:51:39;;;;;;;11.88;4.15;;;;;;;;;;5158550;27;20120;-80
2023/03/20 10:54:08;;;;;;;10.68;4.25;;;;;;;;;;5137665;27;20081;-80
2023/03/20 10:56:38;;;;;;;12.35;4.22;;;;;;;;;;5168387;27;20459;-80
2023/03/20 10:59:06;;;;;;;11.05;4.25;;;;;;;;;;5143830;27;20046;-80
2023/03/20 11:01:32;;;;;;;10.27;4.25;;;;;;;;;;5140022;27;20043;-79
2023/03/20 11:03:58;;;;;;;10.13;4.80;;;;;;;;;;5158201;27;20129;-79
2023/03/20 11:06:31;;;;;;;10.05;4.63;;;;;;;;;;5140354;27;20091;-79
2023/03/20 11:09:10;;;;;;;15.43;4.70;;;;;;;;;;5177013;27;20050;-80
2023/03/20 11:11:43;;;;;;;11.38;4.28;;;;;;;;;;5137554;27;20114;-80
2023/03/20 11:14:17;;;;;;;10.68;4.20;;;;;;;;;;5133120;27;20053;-79
2023/03/20 11:16:47;;;;;;;11.73;4.90;;;;;;;;;;5157630;27;20034;-80
2023/03/20 11:19:13;;;;;;;14.10;4.80;;;;;;;;;;5145066;27;20051;-81
2023/03/20 11:21:48;;;;;;;11.48;4.65;;;;;;;;;;5141817;27;20116;-78
2023/03/20 11:24:26;;;;;;;14.27;4.70;;;;;;;;;;5151479;27;20391;-80
2023/03/20 11:26:52;;;;;;;14.07;5.10;;;;;;;;;;5175802;27;20112;-80
2023/03/20 11:29:25;;;;;;;11.88;5.93;;;;;;;;;;5128657;27;20039;-80
2023/03/20 11:31:51;;;;;;;12.40;4.90;;;;;;;;;;5138913;27;20385;-80
2023/03/20 11:34:17;;;;;;;13.73;5.32;;;;;;;;;;5139946;27;20046;-80
2023/03/20 11:36:53;;;;;;;14.55;5.82;;;;;;;;;;5142822;27;20038;-80
2023/03/20 11:39:23;;;;;;;12.77;5.22;;;;;;;;;;5146964;27;20065;-80
2023/03/20 11:41:54;;;;;;;12.98;5.60;;;;;;;;;;5172757;27;20045;-80
2023/03/20 11:44:30;;;;;;;16.38;5.15;;;;;;;;;;5139771;27;20038;-80
2023/03/20 11:46:56;;;;;;;14.10;5.07;;;;;;;;;;5153986;27;20054;-81
2023/03/20 11:49:23;;;;;;;10.93;4.93;;;;;;;;;;5145329;27;20041;-80
2023/03/20 11:51:50;;;;;;;14.05;4.85;;;;;;;;;;5157047;27;20045;-80
2023/03/20 11:54:18;;;;;;;12.52;5.18;;;;;;;;;;5136117;27;20072;-80
2023/03/20 11:56:52;;;;;;;12.50;5.40;;;;;;;;;;5124394;27;20038;-80
2023/03/20 11:59:19;;;;;;;15.57;5.60;;;;;;;;;;5156900;27;20049;-81
2023/03/20 12:01:52;;;;;;;11.65;5.72;;;;;;;;;;5156316;27;20053;-81
2023/03/20 12:04:28;;;;;;;13.07;6.38;;;;;;;;;;5143120;27;20038;-80
2023/03/20 12:06:54;;;;;;;12.52;6.70;;;;;;;;;;5142891;27;20069;-81
2023/03/20 12:09:59;;;;;;;11.20;6.47;;;;;;;;;;5138715;27;20049;-80
2023/03/20 12:12:31;;;;;;;15.32;7.05;;;;;;;;;;5053547;28;20398;-80
2023/03/20 12:15:12;;;;;;;15.50;6.82;;;;;;;;;;5039750;28;20032;-80
2023/03/20 12:17:41;;;;;;;17.73;7.80;;;;;;;;;;5081470;27;20502;-80
2023/03/20 12:20:11;;;;;;;13.35;7.68;;;;;;;;;;5142583;27;20038;-80
2023/03/20 12:22:42;;;;;;;16.27;7.70;;;;;;;;;;5126643;27;20394;-79
2023/03/20 12:25:20;;;;;;;22.10;8.18;;;;;;;;;;5150387;27;20045;-80
2023/03/20 12:27:56;;;;;;;16.52;9.18;;;;;;;;;;5149058;27;20039;-81
2023/03/20 12:30:29;;;;;;;15.55;9.27;;;;;;;;;;5150281;27;20479;-80
2023/03/20 12:33:02;;;;;;;22.40;10.00;;;;;;;;;;5147088;27;20078;-81
2023/03/20 12:35:33;;;;;;;17.88;8.98;;;;;;;;;;5120513;27;20509;-80
2023/03/20 12:37:59;;;;;;;20.58;9.65;;;;;;;;;;5165635;27;20478;-80
2023/03/20 12:40:32;;;;;;;18.58;9.45;;;;;;;;;;5156162;27;20042;-80
2023/03/20 12:43:03;;;;;;;15.80;8.98;;;;;;;;;;5175115;27;20435;-80
2023/03/20 12:45:52;;;;;;;15.90;9.13;;;;;;;;;;5141601;27;20043;-80
2023/03/20 12:48:18;;;;;;;17.40;9.32;;;;;;;;;;5155951;27;20042;-80
2023/03/20 12:50:50;;;;;;;16.17;9.45;;;;;;;;;;5171076;27;20038;-80
2023/03/20 12:53:22;;;;;;;20.05;9.57;;;;;;;;;;5146837;27;20061;-80
2023/03/20 12:56:07;;;;;;;20.30;10.13;;;;;;;;;;5141664;27;20057;-80
2023/03/20 12:58:40;;;;;;;17.73;10.07;;;;;;;;;;5157943;27;20565;-80
2023/03/20 13:01:10;;;;;;;17.40;10.57;;;;;;;;;;5140931;27;20042;-80
2023/03/20 13:03:59;;;;;;;23.35;11.73;;;;;;;;;;5151598;27;20117;-80
2023/03/20 13:06:25;;;;;;;19.45;11.45;;;;;;;;;;5153212;27;20409;-80
2023/03/20 13:08:54;;;;;;;21.45;11.23;;;;;;;;;;5135826;27;20037;-80
2023/03/20 13:11:43;;;;;;;22.90;12.88;;;;;;;;;;5129565;27;20078;-80
2023/03/20 13:14:20;;;;;;;27.27;13.55;;;;;;;;;;5179612;27;20054;-80
2023/03/20 13:16:46;;;;;;;34.45;16.88;;;;;;;;;;5114877;27;20041;-80
2023/03/20 13:19:35;;;;;;;41.30;20.15;;;;;;;;;;5147456;27;20039;-80
2023/03/20 13:22:08;;;;;;;45.05;20.98;;;;;;;;;;5134715;27;20033;-80
2023/03/20 13:24:41;;;;;;;50.40;23.42;;;;;;;;;;5145683;27;20038;-80
2023/03/20 13:27:22;;;;;;;40.08;21.02;;;;;;;;;;5142873;27;20038;-80
2023/03/20 13:30:07;;;;;;;43.60;20.05;;;;;;;;;;5128649;27;20497;-80
2023/03/20 13:32:36;;;;;;;38.15;19.13;;;;;;;;;;5149928;27;20485;-80
2023/03/20 13:35:02;;;;;;;34.58;17.23;;;;;;;;;;5157852;27;20042;-80
2023/03/20 13:37:34;;;;;;;29.90;17.95;;;;;;;;;;5139018;27;20070;-80
2023/03/20 13:40:16;;;;;;;28.13;14.93;;;;;;;;;;5139246;27;20046;-80
2023/03/20 13:42:47;;;;;;;25.80;13.82;;;;;;;;;;5139135;27;20039;-81
2023/03/20 13:45:28;;;;;;;23.35;13.77;;;;;;;;;;5156258;27;20122;-80
2023/03/20 13:47:55;;;;;;;22.50;14.00;;;;;;;;;;5148541;27;20043;-81
2023/03/20 13:50:40;;;;;;;23.52;13.98;;;;;;;;;;5156226;27;20041;-80
2023/03/20 13:53:29;;;;;;;25.00;14.13;;;;;;;;;;5147656;27;20082;-80
2023/03/20 13:55:55;;;;;;;26.10;14.27;;;;;;;;;;5149122;27;20274;-81
2023/03/20 13:58:24;;;;;;;24.33;15.00;;;;;;;;;;5142361;27;20122;-81
2023/03/20 14:01:06;;;;;;;25.50;14.88;;;;;;;;;;5157799;27;20494;-81
2023/03/20 14:03:33;;;;;;;26.52;14.88;;;;;;;;;;5124828;27;20035;-80
2023/03/20 14:05:59;;;;;;;24.67;14.25;;;;;;;;;;5158311;27;20399;-81
2023/03/20 14:08:29;;;;;;;25.95;15.20;;;;;;;;;;5147191;27;20151;-80
2023/03/20 14:11:13;;;;;;;29.55;13.88;;;;;;;;;;5152969;27;20050;-80
2023/03/20 14:13:42;;;;;;;26.02;15.43;;;;;;;;;;5138331;27;20494;-81
2023/03/20 14:16:09;;;;;;;26.17;15.30;;;;;;;;;;5158132;27;20039;-81
2023/03/20 14:18:36;;;;;;;28.80;15.60;;;;;;;;;;5158964;27;20049;-81
2023/03/20 14:21:09;;;;;;;23.20;15.40;;;;;;;;;;5145495;27;20107;-81
2023/03/20 14:23:36;;;;;;;25.80;16.30;;;;;;;;;;5144704;27;20103;-80
2023/03/20 14:26:10;;;;;;;28.80;16.08;;;;;;;;;;5146123;27;20095;-81
2023/03/20 14:29:05;;;;;;;24.20;16.35;;;;;;;;;;5152463;27;20117;-81
2023/03/20 14:31:36;;;;;;;28.67;17.38;;;;;;;;;;5105516;27;20491;-81
2023/03/20 14:34:05;;;;;;;28.40;16.85;;;;;;;;;;5158854;27;20038;-81
2023/03/20 14:36:50;;;;;;;30.50;17.60;;;;;;;;;;5140571;27;20045;-81
2023/03/20 14:39:24;;;;;;;29.92;17.55;;;;;;;;;;5121004;27;20038;-81